Time;durP1;ratioP1;P1;durP2;ratioP2;P2;SDS_P1;SDS_P2;PMS_P1;PMS_P2;Temp;Humidity;BMP_temperature;BMP_pressure;BME280_temperature;BME280_humidity;BME280_pressure;Samples;Min_cycle;Max_cycle;Signal;HPM_P1;HPM_P2
2021/09/02 00:00:51;;;;;;;1999.90;999.90;;;10.60;99.90;;;;;;4993309;28;20034;-82
2021/09/02 00:03:16;;;;;;;1999.90;999.90;;;10.60;99.90;;;;;;4992968;28;20035;-85
2021/09/02 00:05:42;;;;;;;1999.90;999.90;;;10.50;99.90;;;;;;4993122;28;20165;-83
2021/09/02 00:08:08;;;;;;;1999.90;999.90;;;10.50;99.90;;;;;;4993019;28;20030;-84
2021/09/02 00:10:34;;;;;;;1999.90;999.90;;;10.50;99.90;;;;;;4993103;28;20037;-83
2021/09/02 00:13:00;;;;;;;1999.90;999.90;;;10.60;99.90;;;;;;4993035;28;20394;-83
2021/09/02 00:15:26;;;;;;;1999.90;999.90;;;10.60;99.90;;;;;;4993167;28;20023;-83
2021/09/02 00:17:52;;;;;;;1999.90;999.90;;;10.60;99.90;;;;;;4992786;28;20033;-84
2021/09/02 00:20:18;;;;;;;1999.90;999.90;;;10.60;99.90;;;;;;4992849;28;20109;-83
2021/09/02 00:22:44;;;;;;;1999.90;999.90;;;10.60;99.90;;;;;;4992645;28;20034;-86
2021/09/02 00:25:10;;;;;;;1999.90;999.90;;;10.60;99.90;;;;;;4994184;28;20484;-82
2021/09/02 00:27:36;;;;;;;1999.90;999.90;;;10.60;99.90;;;;;;4992632;28;20045;-84
2021/09/02 00:30:03;;;;;;;1999.90;999.90;;;10.60;99.90;;;;;;4992982;28;20470;-83
2021/09/02 00:32:29;;;;;;;1999.90;999.90;;;10.70;99.90;;;;;;4992883;28;20089;-84
2021/09/02 00:34:54;;;;;;;1999.90;999.90;;;10.70;99.90;;;;;;4994950;28;20023;-84
2021/09/02 00:37:20;;;;;;;1999.90;999.90;;;10.70;99.90;;;;;;4996175;28;20121;-84
2021/09/02 00:39:46;;;;;;;1999.90;999.90;;;10.70;99.90;;;;;;4996604;28;20109;-83
2021/09/02 00:42:11;;;;;;;1999.90;999.90;;;10.60;99.90;;;;;;4996340;28;20133;-85
2021/09/02 00:44:40;;;;;;;1999.90;999.90;;;10.60;99.90;;;;;;4997594;28;20054;-82
2021/09/02 00:47:08;;;;;;;1999.90;999.90;;;10.60;99.90;;;;;;4997475;28;20073;-84
2021/09/02 00:49:35;;;;;;;1999.90;999.90;;;10.60;99.90;;;;;;4996429;28;20027;-83
2021/09/02 00:52:16;;;;;;;1999.90;999.90;;;10.50;99.90;;;;;;4996140;28;20030;-83
2021/09/02 00:54:47;;;;;;;1999.90;999.90;;;10.50;99.90;;;;;;4996057;28;20058;-83
2021/09/02 00:57:15;;;;;;;1999.90;999.90;;;10.40;99.90;;;;;;4995919;28;20026;-82
2021/09/02 00:59:40;;;;;;;1999.90;999.90;;;10.40;99.90;;;;;;4996180;28;20470;-85
2021/09/02 01:02:08;;;;;;;1999.90;999.90;;;10.30;99.90;;;;;;4995863;28;20036;-83
2021/09/02 01:04:34;;;;;;;1999.90;999.90;;;10.30;99.90;;;;;;4996005;28;20031;-84
2021/09/02 01:07:00;;;;;;;1999.90;999.90;;;10.30;99.90;;;;;;4995757;28;20026;-85
2021/09/02 01:09:27;;;;;;;1999.90;999.90;;;10.10;99.90;;;;;;4995850;28;20045;-83
2021/09/02 01:11:54;;;;;;;1999.90;999.90;;;10.10;99.90;;;;;;4995523;28;20022;-85
2021/09/02 01:14:20;;;;;;;1999.90;999.90;;;10.10;99.90;;;;;;4996654;28;20032;-82
2021/09/02 01:16:50;;;;;;;1999.90;999.90;;;10.10;99.90;;;;;;4995764;28;20478;-83
2021/09/02 01:19:20;;;;;;;1999.90;999.90;;;10.10;99.90;;;;;;4995815;28;20045;-83
2021/09/02 01:21:48;;;;;;;1999.90;999.90;;;10.20;99.90;;;;;;4995489;28;20022;-82
2021/09/02 01:24:14;;;;;;;1999.90;999.90;;;10.20;99.90;;;;;;4995294;28;20030;-83
2021/09/02 01:26:41;;;;;;;1999.90;999.90;;;10.30;99.90;;;;;;4995528;28;20038;-84
2021/09/02 01:29:11;;;;;;;1999.90;999.90;;;10.30;99.90;;;;;;4995412;28;20030;-82
2021/09/02 01:31:41;;;;;;;1999.90;999.90;;;10.40;99.90;;;;;;4995273;28;20029;-85
2021/09/02 01:34:06;;;;;;;1999.90;999.90;;;10.40;99.90;;;;;;4995307;28;20433;-83
2021/09/02 01:36:32;;;;;;;1999.90;999.90;;;10.40;99.90;;;;;;4995226;28;20109;-84
2021/09/02 01:38:58;;;;;;;1999.90;999.90;;;10.40;99.90;;;;;;4995111;28;20034;-83
2021/09/02 01:41:23;;;;;;;1999.90;999.90;;;10.40;99.90;;;;;;4995236;28;20030;-83
2021/09/02 01:43:50;;;;;;;1999.90;999.90;;;10.40;99.90;;;;;;4994718;28;20034;-82
2021/09/02 01:46:17;;;;;;;1999.90;999.90;;;10.20;99.90;;;;;;4996162;28;20029;-84
2021/09/02 01:48:43;;;;;;;1999.90;999.90;;;10.20;99.90;;;;;;4994911;28;20030;-83
2021/09/02 01:51:08;;;;;;;1999.90;999.90;;;10.20;99.90;;;;;;4994966;28;20022;-83
2021/09/02 01:53:34;;;;;;;1999.90;999.90;;;10.10;99.90;;;;;;4994770;28;20030;-84
2021/09/02 01:55:59;;;;;;;1999.90;999.90;;;10.00;99.90;;;;;;4994591;28;20145;-83
2021/09/02 01:58:26;;;;;;;1999.90;999.90;;;9.90;99.90;;;;;;4994816;28;20030;-85
2021/09/02 02:00:52;;;;;;;1999.90;999.90;;;9.90;99.90;;;;;;4994790;28;20026;-85
2021/09/02 02:03:18;;;;;;;1999.90;999.90;;;9.90;99.90;;;;;;4994437;28;20061;-84
2021/09/02 02:05:44;;;;;;;1999.90;999.90;;;9.80;99.90;;;;;;4994906;28;20022;-84
2021/09/02 02:08:18;;;;;;;1999.90;999.90;;;9.80;99.90;;;;;;4994744;28;20033;-82
2021/09/02 02:10:44;;;;;;;1999.90;999.90;;;9.80;99.90;;;;;;4995918;28;20022;-83
2021/09/02 02:13:10;;;;;;;1999.90;999.90;;;9.80;99.90;;;;;;4993775;28;20049;-84
2021/09/02 02:15:36;;;;;;;1999.90;999.90;;;9.70;99.90;;;;;;4993630;28;20474;-82
2021/09/02 02:18:02;;;;;;;1999.90;999.90;;;9.70;99.90;;;;;;4993676;28;20077;-82
2021/09/02 02:20:27;;;;;;;1999.90;999.90;;;9.60;99.90;;;;;;4993286;28;20417;-84
2021/09/02 02:22:53;;;;;;;1999.90;999.90;;;9.60;99.90;;;;;;4994469;28;20041;-85
2021/09/02 02:25:19;;;;;;;1999.90;999.90;;;9.70;99.90;;;;;;4992960;28;20436;-83
2021/09/02 02:27:44;;;;;;;1999.90;999.90;;;9.60;99.90;;;;;;4993318;28;20462;-82
2021/09/02 02:30:16;;;;;;;1999.90;999.90;;;9.70;99.90;;;;;;4993324;28;20563;-84
2021/09/02 02:32:42;;;;;;;1999.90;999.90;;;9.70;99.90;;;;;;4993887;28;20371;-83
2021/09/02 02:35:09;;;;;;;1999.90;999.90;;;9.70;99.90;;;;;;4994341;28;20085;-82
2021/09/02 02:37:35;;;;;;;1999.90;999.90;;;9.70;99.90;;;;;;4995265;28;20058;-85
2021/09/02 02:40:01;;;;;;;1999.90;999.90;;;9.70;99.90;;;;;;4994316;28;20064;-84
2021/09/02 02:42:26;;;;;;;1999.90;999.90;;;9.80;99.90;;;;;;4994339;28;20105;-86
2021/09/02 02:44:52;;;;;;;1999.90;999.90;;;9.90;99.90;;;;;;4995391;28;20026;-85
2021/09/02 02:47:18;;;;;;;1999.90;999.90;;;9.90;99.90;;;;;;4994183;28;20049;-83
2021/09/02 02:49:43;;;;;;;1999.90;999.90;;;9.90;99.90;;;;;;4993980;28;20030;-84
2021/09/02 02:52:09;;;;;;;1999.90;999.90;;;9.90;99.90;;;;;;4993704;28;20084;-84
2021/09/02 02:54:35;;;;;;;1999.90;999.90;;;9.90;99.90;;;;;;4993806;28;20081;-81
2021/09/02 02:57:01;;;;;;;1999.90;999.90;;;9.90;99.90;;;;;;4993394;28;20026;-84
2021/09/02 02:59:27;;;;;;;1999.90;999.90;;;10.00;99.90;;;;;;4993474;28;20033;-84
2021/09/02 03:01:53;;;;;;;1999.90;999.90;;;9.90;99.90;;;;;;4993489;28;20037;-84
2021/09/02 03:04:18;;;;;;;1999.90;999.90;;;9.80;99.90;;;;;;4993523;28;20058;-83
2021/09/02 03:06:44;;;;;;;1999.90;999.90;;;9.80;99.90;;;;;;4994689;28;20065;-82
2021/09/02 03:09:10;;;;;;;1999.90;999.90;;;9.70;99.90;;;;;;4993809;28;20026;-82
2021/09/02 03:11:35;;;;;;;1999.90;999.90;;;9.60;99.90;;;;;;4993692;28;20022;-83
2021/09/02 03:14:02;;;;;;;1999.90;999.90;;;9.60;99.90;;;;;;4993256;28;20489;-83
2021/09/02 03:16:27;;;;;;;1999.90;999.90;;;9.60;99.90;;;;;;4993389;28;20018;-86
2021/09/02 03:18:53;;;;;;;1999.90;999.90;;;9.50;99.90;;;;;;4993872;28;20041;-82
2021/09/02 03:21:19;;;;;;;1999.90;999.90;;;9.50;99.90;;;;;;4993555;28;20030;-83
2021/09/02 03:23:44;;;;;;;1999.90;999.90;;;9.50;99.90;;;;;;4993187;28;20045;-83
2021/09/02 03:26:10;;;;;;;1999.90;999.90;;;9.50;99.90;;;;;;4993465;28;20026;-82
2021/09/02 03:28:36;;;;;;;1999.90;999.90;;;9.50;99.90;;;;;;4993256;28;20030;-84
2021/09/02 03:31:01;;;;;;;1999.90;999.90;;;9.40;99.90;;;;;;4993400;28;20109;-85
2021/09/02 03:33:27;;;;;;;1999.90;999.90;;;9.40;99.90;;;;;;4993458;28;20026;-81
2021/09/02 03:35:53;;;;;;;1999.90;999.90;;;9.40;99.90;;;;;;4993383;28;20094;-83
2021/09/02 03:38:18;;;;;;;1999.90;999.90;;;9.40;99.90;;;;;;4993328;28;20023;-84
2021/09/02 03:40:44;;;;;;;1999.90;999.90;;;9.40;99.90;;;;;;4994375;28;20061;-82
2021/09/02 03:43:10;;;;;;;1999.90;999.90;;;9.30;99.90;;;;;;4993127;28;20070;-83
2021/09/02 03:45:35;;;;;;;1999.90;999.90;;;9.20;99.90;;;;;;4993265;28;20026;-84
2021/09/02 03:48:01;;;;;;;1999.90;999.90;;;9.20;99.90;;;;;;4992903;28;20069;-84
2021/09/02 03:50:27;;;;;;;1999.90;999.90;;;9.10;99.90;;;;;;4993227;28;20076;-82
2021/09/02 03:52:53;;;;;;;1999.90;999.90;;;9.10;99.90;;;;;;4993105;28;20034;-83
2021/09/02 03:55:19;;;;;;;1999.90;999.90;;;9.10;99.90;;;;;;4992970;28;20050;-82
2021/09/02 03:57:45;;;;;;;1999.90;999.90;;;9.10;99.90;;;;;;4994436;28;20031;-84
2021/09/02 04:00:12;;;;;;;1999.90;999.90;;;9.10;99.90;;;;;;4994284;28;20025;-84
2021/09/02 04:02:38;;;;;;;1999.90;999.90;;;9.20;99.90;;;;;;4992776;28;20042;-82
2021/09/02 04:05:06;;;;;;;1999.90;999.90;;;9.20;99.90;;;;;;4994243;28;20114;-82
2021/09/02 04:07:32;;;;;;;1999.90;999.90;;;9.20;99.90;;;;;;4992900;28;20076;-82
2021/09/02 04:09:58;;;;;;;1999.90;999.90;;;9.30;99.90;;;;;;4994154;28;20026;-85
2021/09/02 04:12:24;;;;;;;1999.90;999.90;;;9.40;99.90;;;;;;4996831;28;20073;-85
2021/09/02 04:14:50;;;;;;;1999.90;999.90;;;9.40;99.90;;;;;;4996551;28;20069;-81
2021/09/02 04:17:16;;;;;;;1999.90;999.90;;;9.40;99.90;;;;;;4997798;28;20434;-85
2021/09/02 04:19:42;;;;;;;1999.90;999.90;;;9.40;99.90;;;;;;4996856;28;20034;-81
2021/09/02 04:22:07;;;;;;;1999.90;999.90;;;11.20;99.90;;;;;;4996312;28;20080;-80
2021/09/02 04:24:33;;;;;;;1999.90;999.90;;;12.00;99.90;;;;;;5000253;28;20034;-81
2021/09/02 04:26:59;;;;;;;1999.90;999.90;;;12.40;99.90;;;;;;4995155;28;20027;-79
2021/09/02 04:29:25;;;;;;;1999.90;999.90;;;12.70;99.90;;;;;;4996711;28;20022;-80
2021/09/02 04:31:51;;;;;;;1999.90;999.90;;;12.50;99.90;;;;;;4995454;28;20367;-81
2021/09/02 04:34:16;;;;;;;1999.90;999.90;;;12.70;99.90;;;;;;4995292;28;20034;-81
2021/09/02 04:36:42;;;;;;;1999.90;999.90;;;12.90;99.90;;;;;;4995368;28;20105;-81
2021/09/02 04:39:08;;;;;;;1999.90;999.90;;;12.90;99.90;;;;;;4996717;28;20099;-80
2021/09/02 04:41:34;;;;;;;1999.90;999.90;;;13.30;99.90;;;;;;4995126;28;20049;-83
2021/09/02 04:43:59;;;;;;;1999.90;999.90;;;13.30;99.90;;;;;;4995165;28;20062;-81
2021/09/02 04:46:25;;;;;;;1999.90;999.90;;;13.60;99.90;;;;;;4999344;28;20033;-81
2021/09/02 04:48:51;;;;;;;1999.90;999.90;;;13.70;99.90;;;;;;4994809;28;20386;-80
2021/09/02 04:51:17;;;;;;;1999.90;999.90;;;14.10;99.20;;;;;;4995255;28;20026;-82
2021/09/02 04:53:45;;;;;;;1999.90;999.90;;;14.70;97.20;;;;;;4994068;28;20026;-81
2021/09/02 04:56:11;;;;;;;1999.90;999.90;;;14.80;95.70;;;;;;4994968;28;20125;-80
2021/09/02 04:58:38;;;;;;;1999.90;999.90;;;14.50;96.70;;;;;;4994633;28;20073;-80
2021/09/02 05:01:04;;;;;;;1999.90;999.90;;;14.40;96.30;;;;;;4995707;28;20054;-80
2021/09/02 05:03:29;;;;;;;1999.90;999.90;;;14.70;96.20;;;;;;4994229;28;20088;-79
2021/09/02 05:05:55;;;;;;;1999.90;999.90;;;14.60;96.30;;;;;;4994674;28;20499;-81
2021/09/02 05:08:22;;;;;;;1999.90;999.90;;;14.00;96.80;;;;;;4995103;28;20034;-79
2021/09/02 05:10:48;;;;;;;1999.90;999.90;;;13.70;99.40;;;;;;4994464;28;20386;-80
2021/09/02 05:13:14;;;;;;;1999.90;999.90;;;13.60;99.90;;;;;;4993590;28;20529;-81
2021/09/02 05:15:40;;;;;;;1999.90;999.90;;;13.30;99.90;;;;;;4994010;28;20118;-81
2021/09/02 05:18:05;;;;;;;1999.90;999.90;;;13.10;99.90;;;;;;4994183;28;20036;-81
2021/09/02 05:20:31;;;;;;;1999.90;999.90;;;13.00;99.90;;;;;;4995147;28;20029;-82
2021/09/02 05:22:57;;;;;;;1999.90;999.90;;;13.50;99.90;;;;;;4994057;28;20101;-81
2021/09/02 05:25:23;;;;;;;1999.90;999.90;;;13.50;99.90;;;;;;4994132;28;20049;-81
2021/09/02 05:27:48;;;;;;;1999.90;999.90;;;13.50;99.90;;;;;;4993964;28;20042;-81
2021/09/02 05:30:14;;;;;;;1999.90;999.90;;;13.70;99.90;;;;;;4994541;28;20023;-81
2021/09/02 05:32:41;;;;;;;1999.90;999.90;;;13.60;99.90;;;;;;4994315;28;20027;-80
2021/09/02 05:35:07;;;;;;;1999.90;999.90;;;13.50;99.90;;;;;;4996183;28;20023;-85
2021/09/02 05:37:33;;;;;;;1999.90;999.90;;;13.10;99.90;;;;;;4994915;28;20050;-84
2021/09/02 05:39:59;;;;;;;1999.90;999.90;;;12.50;99.90;;;;;;4995923;28;20033;-82
2021/09/02 05:42:25;;;;;;;1999.90;999.90;;;12.10;99.90;;;;;;4994591;28;20041;-83
2021/09/02 05:44:50;;;;;;;1999.90;999.90;;;11.90;99.90;;;;;;4994603;28;20093;-82
2021/09/02 05:47:16;;;;;;;1999.90;999.90;;;11.80;99.90;;;;;;4994893;28;20429;-82
2021/09/02 05:49:41;;;;;;;1999.90;999.90;;;11.80;99.90;;;;;;4994757;28;20030;-82
2021/09/02 05:52:07;;;;;;;1999.90;999.90;;;11.80;99.90;;;;;;4995397;28;20057;-82
2021/09/02 05:54:33;;;;;;;1999.90;999.90;;;11.80;99.90;;;;;;4994201;28;20038;-83
2021/09/02 05:56:59;;;;;;;1999.90;999.90;;;11.80;99.90;;;;;;4994603;28;20100;-81
2021/09/02 05:59:24;;;;;;;1999.90;999.90;;;11.80;99.90;;;;;;4994392;28;20097;-82
2021/09/02 06:01:50;;;;;;;1999.90;999.90;;;11.80;99.90;;;;;;4994124;28;20029;-83
2021/09/02 06:04:16;;;;;;;1999.90;999.90;;;11.70;99.90;;;;;;4994376;28;20033;-81
2021/09/02 06:06:41;;;;;;;1999.90;999.90;;;11.80;99.90;;;;;;4994534;28;20088;-84
2021/09/02 06:09:07;;;;;;;1999.90;999.90;;;11.80;99.90;;;;;;4994522;28;20402;-82
2021/09/02 06:11:34;;;;;;;1999.90;999.90;;;11.90;99.90;;;;;;4994536;28;20041;-82
2021/09/02 06:14:00;;;;;;;1999.90;999.90;;;12.00;99.90;;;;;;4994662;28;20019;-82
2021/09/02 06:16:26;;;;;;;1999.90;999.90;;;12.10;99.90;;;;;;4994767;28;20030;-85
2021/09/02 06:18:51;;;;;;;1999.90;999.90;;;12.20;99.90;;;;;;4994744;28;20053;-83
2021/09/02 06:21:17;;;;;;;1999.90;999.90;;;12.30;99.90;;;;;;4995636;28;20044;-81
2021/09/02 06:23:43;;;;;;;1999.90;999.90;;;12.40;99.90;;;;;;4993942;28;20034;-82
2021/09/02 06:26:09;;;;;;;1999.90;999.90;;;12.50;99.90;;;;;;4994312;28;20367;-81
2021/09/02 06:28:35;;;;;;;1999.90;999.90;;;12.70;99.90;;;;;;4993667;28;20030;-83
2021/09/02 06:31:00;;;;;;;1999.90;999.90;;;12.70;99.90;;;;;;4993577;28;20022;-81
2021/09/02 06:33:26;;;;;;;1999.90;999.90;;;12.90;99.90;;;;;;4993356;28;20102;-80
2021/09/02 06:35:52;;;;;;;1999.90;999.90;;;14.40;99.90;;;;;;4994281;28;20027;-81
2021/09/02 06:38:18;;;;;;;1999.90;999.90;;;14.60;99.90;;;;;;4992827;28;20026;-81
2021/09/02 06:40:43;;;;;;;1999.90;999.90;;;15.00;99.90;;;;;;4993036;28;20466;-81
2021/09/02 06:43:09;;;;;;;1999.90;999.90;;;15.20;99.90;;;;;;4993671;28;20113;-82
2021/09/02 06:45:35;;;;;;;1999.90;999.90;;;15.40;99.90;;;;;;4993802;28;20030;-82
2021/09/02 06:48:01;;;;;;;1999.90;999.90;;;15.50;99.90;;;;;;4995094;28;20065;-82
2021/09/02 06:50:27;;;;;;;1999.90;999.90;;;15.50;99.90;;;;;;4993166;28;20022;-83
2021/09/02 06:52:53;;;;;;;1999.90;999.90;;;15.50;99.90;;;;;;4994878;28;20181;-87
2021/09/02 06:55:18;;;;;;;1999.90;999.90;;;15.80;99.90;;;;;;4996102;28;20047;-84
2021/09/02 06:57:44;;;;;;;1999.90;999.90;;;15.80;99.90;;;;;;4995741;28;20030;-92
2021/09/02 07:00:11;;;;;;;1999.90;999.90;;;15.70;99.90;;;;;;4993644;28;20023;-88
2021/09/02 07:02:37;;;;;;;1999.90;999.90;;;15.60;99.90;;;;;;4992774;28;20042;-90
2021/09/02 07:05:05;;;;;;;1999.90;999.90;;;15.60;99.90;;;;;;4993099;28;20029;-89
2021/09/02 07:07:31;;;;;;;1999.90;999.90;;;15.50;99.90;;;;;;4993545;28;20026;-90
2021/09/02 07:09:57;;;;;;;1999.90;999.90;;;15.50;99.90;;;;;;4993279;28;20093;-90
2021/09/02 07:12:23;;;;;;;1999.90;999.90;;;15.50;99.90;;;;;;4993000;28;20033;-89
2021/09/02 07:14:48;;;;;;;1999.90;999.90;;;15.60;99.90;;;;;;4993598;28;20454;-88
2021/09/02 07:17:14;;;;;;;1999.90;999.90;;;15.70;99.90;;;;;;4993021;28;20498;-91
2021/09/02 07:19:40;;;;;;;1999.90;999.90;;;15.80;99.90;;;;;;4992647;28;20026;-89
2021/09/02 07:22:06;;;;;;;1999.90;999.90;;;15.90;99.90;;;;;;4993083;28;20034;-91
2021/09/02 07:24:31;;;;;;;1999.90;999.90;;;16.10;99.90;;;;;;4993135;28;20557;-88
2021/09/02 07:26:57;;;;;;;1999.90;999.90;;;16.20;99.90;;;;;;4993276;28;20544;-88
2021/09/02 07:29:23;;;;;;;1999.90;999.90;;;16.40;99.90;;;;;;4993077;28;20031;-89
2021/09/02 07:31:49;;;;;;;1999.90;999.90;;;16.50;99.90;;;;;;4992722;28;20022;-89
2021/09/02 07:34:15;;;;;;;1999.90;999.90;;;16.60;98.50;;;;;;4992940;28;20029;-90
2021/09/02 07:36:40;;;;;;;1999.90;999.90;;;16.80;97.90;;;;;;4993362;28;20026;-90
2021/09/02 07:39:07;;;;;;;1999.90;999.90;;;16.90;96.60;;;;;;4993306;28;20565;-91
2021/09/02 07:41:33;;;;;;;1999.90;999.90;;;17.00;94.90;;;;;;4993027;28;20031;-89
2021/09/02 07:43:59;;;;;;;1999.90;999.90;;;17.10;95.60;;;;;;4993906;28;20034;-90
2021/09/02 07:46:24;;;;;;;1999.90;999.90;;;17.20;95.00;;;;;;4997025;28;20030;-89
2021/09/02 07:48:50;;;;;;;1999.90;999.90;;;17.30;95.00;;;;;;4997144;28;20081;-90
2021/09/02 07:51:18;;;;;;;1999.90;999.90;;;17.40;94.00;;;;;;4996545;28;20069;-88
2021/09/02 07:53:44;;;;;;;1999.90;999.90;;;17.50;93.90;;;;;;4996167;28;20034;-89
2021/09/02 07:56:11;;;;;;;1999.90;999.90;;;17.70;92.70;;;;;;4996599;28;20386;-90
2021/09/02 07:58:37;;;;;;;1999.90;999.90;;;17.80;92.40;;;;;;4996504;28;20034;-90
2021/09/02 08:01:03;;;;;;;1999.90;999.90;;;18.00;93.10;;;;;;4996609;28;20027;-89
2021/09/02 08:03:28;;;;;;;1999.90;999.90;;;18.10;92.70;;;;;;4996153;28;20092;-90
2021/09/02 08:05:54;;;;;;;1999.90;999.90;;;18.30;92.30;;;;;;4996376;28;20030;-90
2021/09/02 08:08:21;;;;;;;1999.90;999.90;;;18.40;91.80;;;;;;4995909;28;20022;-88
2021/09/02 08:10:48;;;;;;;1999.90;999.90;;;18.50;91.70;;;;;;4996016;28;20513;-89
2021/09/02 08:13:15;;;;;;;1999.90;999.90;;;18.60;92.30;;;;;;4995773;28;20023;-90
2021/09/02 08:15:41;;;;;;;1999.90;999.90;;;18.80;92.20;;;;;;4996073;28;20022;-89
2021/09/02 08:18:08;;;;;;;1999.90;999.90;;;18.90;90.80;;;;;;4995918;28;20120;-89
2021/09/02 08:20:35;;;;;;;1999.90;999.90;;;19.10;90.50;;;;;;4995845;28;20018;-90
2021/09/02 08:23:01;;;;;;;1999.90;999.90;;;19.20;89.00;;;;;;4995743;28;20038;-89
2021/09/02 08:25:27;;;;;;;1999.90;999.90;;;19.30;85.10;;;;;;4995550;28;20037;-89
2021/09/02 08:27:53;;;;;;;1999.90;999.90;;;19.40;84.60;;;;;;4996014;28;20031;-88
2021/09/02 08:30:24;;;;;;;1999.90;999.90;;;19.40;83.60;;;;;;4996064;28;20105;-89
2021/09/02 08:32:50;;;;;;;1999.90;999.90;;;19.50;85.20;;;;;;4996284;28;20030;-89
2021/09/02 08:35:42;;;;;;;1999.90;999.90;;;19.70;85.00;;;;;;4996103;28;20027;-88
2021/09/02 08:38:09;;;;;;;1999.90;999.90;;;19.90;86.00;;;;;;4992773;28;20039;-88
2021/09/02 08:40:37;;;;;;;1999.90;999.90;;;19.90;83.90;;;;;;4995953;28;20026;-89
2021/09/02 08:43:04;;;;;;;1999.90;999.90;;;20.10;83.70;;;;;;4996914;28;20073;-88
2021/09/02 08:45:31;;;;;;;1999.90;999.90;;;20.10;80.50;;;;;;4997465;28;20018;-89
2021/09/02 08:48:00;;;;;;;1999.90;999.90;;;20.30;82.40;;;;;;4997283;28;20103;-88
2021/09/02 08:50:28;;;;;;;1999.90;999.90;;;20.30;80.30;;;;;;4996891;28;20030;-90
2021/09/02 08:52:54;;;;;;;1999.90;999.90;;;20.50;80.80;;;;;;4996685;28;20039;-87
2021/09/02 08:55:20;;;;;;;1999.90;999.90;;;20.60;79.80;;;;;;4996834;28;20390;-88
2021/09/02 08:57:51;;;;;;;1999.90;999.90;;;20.80;80.50;;;;;;4998147;28;20031;-88
2021/09/02 09:00:17;;;;;;;1999.90;999.90;;;20.80;79.60;;;;;;4998090;28;20541;-88
2021/09/02 09:02:46;;;;;;;1999.90;999.90;;;20.90;77.70;;;;;;4998384;28;20137;-88
2021/09/02 09:05:15;;;;;;;1999.90;999.90;;;20.90;79.20;;;;;;4998282;28;20061;-89
2021/09/02 09:07:43;;;;;;;1999.90;999.90;;;20.90;79.70;;;;;;4998932;28;20026;-88
2021/09/02 09:10:18;;;;;;;1999.90;999.90;;;21.00;78.50;;;;;;4999410;28;20015;-87
2021/09/02 09:12:45;;;;;;;1999.90;999.90;;;21.10;78.00;;;;;;4999191;28;20026;-87
2021/09/02 09:15:23;;;;;;;1999.90;999.90;;;21.20;75.50;;;;;;4998067;28;20466;-88
2021/09/02 09:17:51;;;;;;;1999.90;999.90;;;21.20;72.70;;;;;;4999574;28;20033;-88
2021/09/02 09:20:19;;;;;;;1999.90;999.90;;;21.20;72.20;;;;;;4998920;28;20014;-89
2021/09/02 09:22:56;;;;;;;1999.90;999.90;;;21.20;72.00;;;;;;4999433;28;20173;-90
2021/09/02 09:25:22;;;;;;;1999.90;999.90;;;21.30;72.70;;;;;;4996425;28;20022;-88
2021/09/02 09:27:50;;;;;;;1999.90;999.90;;;21.40;71.90;;;;;;4996979;28;20038;-89
2021/09/02 09:30:21;;;;;;;1999.90;999.90;;;21.40;71.00;;;;;;4996642;28;20023;-88
2021/09/02 09:33:03;;;;;;;1999.90;999.90;;;21.30;69.80;;;;;;4996955;28;20030;-88
2021/09/02 09:35:34;;;;;;;1999.90;999.90;;;21.30;69.60;;;;;;4996997;28;20102;-87
2021/09/02 09:38:16;;;;;;;1999.90;999.90;;;21.50;71.50;;;;;;4996791;28;20121;-87
2021/09/02 09:40:44;;;;;;;1999.90;999.90;;;21.70;72.30;;;;;;4997437;28;20065;-87
2021/09/02 09:43:13;;;;;;;1999.90;999.90;;;21.60;70.70;;;;;;4996951;28;20398;-88
2021/09/02 09:45:44;;;;;;;1999.90;999.90;;;21.50;70.50;;;;;;4997850;28;20056;-88
2021/09/02 09:48:30;;;;;;;1999.90;999.90;;;21.70;70.10;;;;;;4997952;28;20396;-87
2021/09/02 09:51:09;;;;;;;1999.90;999.90;;;21.70;68.60;;;;;;4996703;28;20029;-88
2021/09/02 09:53:36;;;;;;;1999.90;999.90;;;21.80;68.90;;;;;;4996256;28;20065;-90
2021/09/02 09:56:03;;;;;;;1999.90;999.90;;;21.70;70.70;;;;;;4997398;28;20043;-88
2021/09/02 09:58:31;;;;;;;1999.90;999.90;;;21.60;70.40;;;;;;4964537;28;20061;-87
2021/09/02 10:01:01;;;;;;;1999.90;999.90;;;21.40;69.40;;;;;;4996539;28;20026;-87
2021/09/02 10:03:30;;;;;;;1999.90;999.90;;;21.30;70.30;;;;;;4998463;28;20034;-87
2021/09/02 10:06:04;;;;;;;1999.90;999.90;;;21.30;72.60;;;;;;4998421;28;20023;-88
2021/09/02 10:08:35;;;;;;;1999.90;999.90;;;21.30;72.50;;;;;;4996602;28;20030;-87
2021/09/02 10:11:04;;;;;;;1999.90;999.90;;;21.20;72.30;;;;;;4999405;28;20030;-87
2021/09/02 10:13:30;;;;;;;1999.90;999.90;;;21.30;72.50;;;;;;4996440;28;20037;-87
2021/09/02 10:15:57;;;;;;;1999.90;999.90;;;21.30;71.40;;;;;;4997485;28;20027;-89
2021/09/02 10:18:23;;;;;;;1999.90;999.90;;;21.30;69.80;;;;;;4998515;28;20109;-88
2021/09/02 10:20:49;;;;;;;1999.90;999.90;;;21.50;70.00;;;;;;4996742;28;20581;-89
2021/09/02 10:23:23;;;;;;;1999.90;999.90;;;21.60;70.30;;;;;;4998183;28;20113;-89
2021/09/02 10:25:49;;;;;;;1999.90;999.90;;;21.80;69.60;;;;;;4998760;28;20026;-87
2021/09/02 10:28:22;;;;;;;1999.90;999.90;;;21.80;67.70;;;;;;4997761;28;20053;-87
2021/09/02 10:30:51;;;;;;;1999.90;999.90;;;22.00;67.00;;;;;;4994283;28;20022;-88
2021/09/02 10:33:40;;;;;;;1999.90;999.90;;;22.00;66.20;;;;;;4993904;28;20129;-88
2021/09/02 10:36:12;;;;;;;1999.90;999.90;;;21.90;66.80;;;;;;4996425;28;20033;-88
2021/09/02 10:38:46;;;;;;;1999.90;999.90;;;21.80;67.60;;;;;;4997492;28;20113;-89
2021/09/02 10:41:13;;;;;;;1999.90;999.90;;;21.70;68.60;;;;;;4997288;28;20180;-89
2021/09/02 10:43:55;;;;;;;1999.90;999.90;;;21.70;69.60;;;;;;4998951;28;20046;-87
2021/09/02 10:46:40;;;;;;;1999.90;999.90;;;22.00;69.20;;;;;;4998866;28;20032;-87
2021/09/02 10:49:26;;;;;;;1999.90;999.90;;;22.00;68.10;;;;;;4999876;28;20029;-89
2021/09/02 10:52:00;;;;;;;1999.90;999.90;;;22.20;67.50;;;;;;4997870;28;20061;-87
2021/09/02 10:54:33;;;;;;;1999.90;999.90;;;22.40;66.90;;;;;;4998694;28;20502;-88
2021/09/02 10:57:10;;;;;;;1999.90;999.90;;;22.70;66.30;;;;;;5000855;28;20113;-89
2021/09/02 10:59:48;;;;;;;1999.90;999.90;;;22.70;66.00;;;;;;5001252;28;20050;-88
2021/09/02 11:02:17;;;;;;;1999.90;999.90;;;22.40;65.50;;;;;;4999687;28;20037;-87
2021/09/02 11:04:55;;;;;;;1999.90;999.90;;;22.40;65.30;;;;;;4998706;28;20038;-88
2021/09/02 11:07:44;;;;;;;1999.90;999.90;;;22.50;64.70;;;;;;5000233;28;20022;-87
2021/09/02 11:10:21;;;;;;;1999.90;999.90;;;22.60;64.80;;;;;;5000196;28;20030;-87
2021/09/02 11:12:57;;;;;;;1999.90;999.90;;;22.70;66.00;;;;;;5001028;28;20568;-86
2021/09/02 11:15:25;;;;;;;1999.90;999.90;;;22.60;64.90;;;;;;4984050;28;20041;-88
2021/09/02 11:17:53;;;;;;;1999.90;999.90;;;22.50;65.20;;;;;;4998623;28;20054;-88
2021/09/02 11:20:24;;;;;;;1999.90;999.90;;;22.40;65.00;;;;;;4998728;28;20022;-88
2021/09/02 11:22:50;;;;;;;1999.90;999.90;;;22.40;65.10;;;;;;4999991;28;20042;-89
2021/09/02 11:25:16;;;;;;;1999.90;999.90;;;22.40;64.90;;;;;;4981510;28;20029;-89
2021/09/02 11:27:42;;;;;;;1999.90;999.90;;;22.50;64.20;;;;;;4998351;28;20026;-89
2021/09/02 11:30:34;;;;;;;1999.90;999.90;;;22.50;64.80;;;;;;4999466;28;20030;-89
2021/09/02 11:33:02;;;;;;;1999.90;999.90;;;22.50;65.00;;;;;;4996759;28;20062;-86
2021/09/02 11:35:29;;;;;;;1999.90;999.90;;;22.50;65.70;;;;;;4998606;28;20484;-87
2021/09/02 11:37:55;;;;;;;1999.90;999.90;;;22.30;65.50;;;;;;4998908;28;20474;-88
2021/09/02 11:40:27;;;;;;;1999.90;999.90;;;22.40;65.60;;;;;;4996702;28;20018;-88
2021/09/02 11:42:55;;;;;;;1999.90;999.90;;;22.50;66.60;;;;;;5000445;28;20034;-88
2021/09/02 11:45:23;;;;;;;1999.90;999.90;;;22.70;65.10;;;;;;4997864;28;20030;-88
2021/09/02 11:47:50;;;;;;;1999.90;999.90;;;22.80;63.90;;;;;;4998623;28;20019;-88
2021/09/02 11:50:17;;;;;;;1999.90;999.90;;;22.90;63.60;;;;;;4998625;28;20035;-86
2021/09/02 11:52:49;;;;;;;1999.90;999.90;;;22.90;62.50;;;;;;4998557;28;20054;-89
2021/09/02 11:55:27;;;;;;;1999.90;999.90;;;23.00;62.20;;;;;;4997230;28;20454;-87
2021/09/02 11:58:00;;;;;;;1999.90;999.90;;;23.20;62.80;;;;;;4998012;28;20526;-88
2021/09/02 12:00:27;;;;;;;1999.90;999.90;;;23.30;62.30;;;;;;4999774;28;20058;-86
2021/09/02 12:02:58;;;;;;;1999.90;999.90;;;23.10;63.10;;;;;;4998755;28;20041;-85